Strona główna
METAR-TAF:

METAR-TAF

Lotnisko :

Port lotniczy Turyn

Turyn, Włochy

Szerokość geograficzna: 45-13N, Długość geograficzna: 007-39E, wysokość: 301 m

Aktualna obserwacja pogody

Raport powstał 18 minut temu, godzina 11:50 UTC
Wiatr 2 kt z kierunków zmiennych
Temperatura 8°C
Wilgotność 81%
Ciśnienie 1021 hPa
Widzialność: 8000 m
Przerywane chmury na wysokości 2000 ft

METAR: LIMF 161150Z VRB02KT 8000 BKN020 08/05 Q1021

czas: 13:08 (12:08 UTC)

Prognoza

Raport powstał 1 godzina i 8 minut temu, godzina 11:00 UTC
Prognoza ważna od 16 godzina 12 UTC do 17 godzina 12 UTC
Wiatr 5 kt z kierunków zmiennych
Widzialność: 5000 m
Przerywane chmury na wysokości 2000 ft
Przerywane chmury na wysokości 5000 ft
zamglenie
Stopniowe zmiany
od 16 godzina 19 UTC do 16 godzina 21 UTC
Widzialność: 2500 m
Przerywane chmury na wysokości 1200 ft
Przerywane chmury na wysokości 4000 ft
mżawka

TAF: LIMF 161100Z 1612/1712 VRB05KT 5000 BR BKN020 BKN050 BECMG 1619/1621 2500 DZ BKN012 BKN040

Obserwacja i prognoza pogody dla ponad 4000 lotnisk (raport METAR i TAF).

Dostępne stacje oznaczono żółtymi i czerwonymi punktami na mapie.

Najedź kursorem aby zobaczyć nazwę stacji.

Kliknij aby zobaczyć obserwacje i prognozy pogody.

Aby zmienić mapę: kliknij na zielony przycisk z czarnym krzyżykiem, aby powiększyć; na zielony przycisk z myślnikiem, aby pomniejszyć; na zielone strzałki, aby przejść do map sąsiednich.


METAR-TAF: